Muscotah, Kansas
Current Conditions -  °F | °C
As of 7:53 PM on Wednesday 17 Dec 2014 (Local Time) from KTOP Reporting Station
Overcast Overcast  
Wind Chill: 24°   Ceiling: 8000
Heat Index: 31°   Visibility: 10mi
Dew Point: 21°   Wind: 7mph
Humidity: 67%   Direction: 70°ENE
Pressure: 30.25"   Gusts: NA
Location:  39.55°N, 95.52°W
Report Text: KTOP 180153Z AUTO 07006KT 10SM FEW045 SCT055 OVC080 M01/M06 A3025 RMK AO2 SLP254 T10061061
Loading
Personal Weather Stations






























Interactive Weather Map New forecast layout! Learn more

10-Day Weather Forecast

Advertisements
Track Severe Weather on mobile